Terminal Aerodrome Forecast
Issued by NWS Wilmington, OH

Current Version | Previous Version | Graphics & Text | Print | Product List | Glossary On
Versions: 1 2 3 4 5 6 7 8 9 10 11 12 13 14 15 16 17 18 19 20 21 22 23 24 25 26 27 28 29 30 31 32
000
FTUS41 KILN 270400 AAB
TAFCVG
TAF AMD
KCVG 270401Z 2704/2806 21007KT P6SM -SHRA BKN040 OVC150
      TEMPO 2704/2706 3SM -TSRA OVC025CB
     FM270800 20008KT P6SM VCSH SCT080 OVC100
     FM271700 24011G20KT P6SM -SHRA VCTS BKN035CB
     FM272200 27014G25KT P6SM BKN040
     FM280000 28014KT P6SM SCT050 BKN200=

USA.gov is the U.S. government's official web portal to all federal, state and local government web resources and services.